Coleman A. Young Municipal Airport Detroit US
ICAO: KDET
IATA: DET
Category: Medium
Scheduled Services: No

Elevation: 626 ft
TransAlt. 18000 ft.

Airport Communications:
APP/DEP:126.85
ATIS:124.875
GND:121.85
LANSING RDO:122.2
TWR:121.3
UNICOM:122.95

KDET Zoom In..

Runways:

(A) RW 07 length 3714 ft width 100 ft
---- / hdg 68

(B) RW 15 length 5090 ft width 100 ft
ILS 111.30 / hdg 148

(C) RW 25 length 3714 ft width 100 ft
---- / hdg 248

(D) RW 33 length 5090 ft width 100 ft
ILS 111.30 / hdg 328

Location; KDET
Day. 23 / Time. 03.19 Zulu
* Altimeter: 29.87
* Temperature: 18° c. 64.4°f.
* Wind from: 000° Speed 00 kn.
Dewpoint: 14° c.
Visibility: 10 Statute Miles.
Clouds: Broken 2500 ft.
Clouds: Overcast 3900 ft.

KDET 230319Z 00000KT 10SM BKN025 OVC039 18/14 A2987 RMK AO2 T01780139


Wind - Calm.

 
 
jpsmedia.com for Web Design worldairports.se 2018   terms of use